Portada
METAR-TAF:

METAR-TAF

Aeroports :

San Andrés, Colòmbia

latitud: 12-35N, longitud: 081-43W, altitud: 1 m

Observació

L'informe es va fer fa 34 minuts, a les 00:00 UTC
Vent 4 kt del Est, variant entre Nord-Est i Est/Sud-Est
Temperatura 28°C
Humitat 84%
Pressió 1009 hPa
Visibilitat 10 km o més
Núvols disperses a una alçada de 1600 ft

METAR: SKSP 210000Z 09004KT 040V110 9999 SCT016 28/25 Q1009

Hora: 19:34 (00:34 UTC)

Pronòstic

L'informe es va fer fa 2 hores i 4 minuts, a les 22:30 UTC
Pronòstic vàlid del 21 a les 00 UTC al 21 a les 24 UTC
Vent 8 kt del Est/Nord-Est
Visibilitat 10 km o més
Núvols disperses a una alçada de 1500 ft
Temporalment
l' 21 a les 00 UTC al 21 a les 03 UTC
Cel ennuvolat a una alçada de 1500 ft
xàfecs de pluja,

TAF: SKSP 202230Z 2100/2124 07008KT 9999 SCT015 TEMPO 2100/2103 SHRA BKN015 TX30/2119Z TN25/2110Z

Observacions i pronòstics meteorològics de més de 4000 aeroports (METAR i TAF).

Les estacions disponibles són els punts grocs i vermells al mapa.

Posi el ratolí al punt desitjat per veure el nom de l'estació.

Feu clic per veure les observacions i els pronòstics meteorològics.

Per canviar el mapa: feu clic els botons verds amb una creu de color negre per apropar; al botó verd amb un guió per allunyar la imatge; o en les fletxes verdes per a mapes adjacents.


METAR-TAF: